Time;durP1;ratioP1;P1;durP2;ratioP2;P2;SDS_P1;SDS_P2;PMS_P1;PMS_P2;Temp;Humidity;BMP_temperature;BMP_pressure;BME280_temperature;BME280_humidity;BME280_pressure;Samples;Min_cycle;Max_cycle;Signal;HPM_P1;HPM_P2
2022/12/04 00:00:05;;;;;;;13.35;7.72;;;16.20;1.00;;;;;;4824357;29;20137;-35
2022/12/04 00:02:32;;;;;;;13.30;7.38;;;16.20;1.00;;;;;;4824367;29;20078;-33
2022/12/04 00:04:59;;;;;;;12.43;7.25;;;16.20;1.00;;;;;;4838399;29;20408;-32
2022/12/04 00:07:26;;;;;;;17.67;8.18;;;16.10;1.00;;;;;;4824562;29;20047;-36
2022/12/04 00:09:52;;;;;;;17.85;8.25;;;16.10;1.00;;;;;;4824285;29;20051;-37
2022/12/04 00:12:20;;;;;;;18.27;9.77;;;16.00;1.00;;;;;;4824244;29;20145;-33
2022/12/04 00:14:46;;;;;;;12.68;7.93;;;16.00;1.00;;;;;;4824176;29;20050;-34
2022/12/04 00:17:33;;;;;;;13.85;8.68;;;16.00;1.00;;;;;;4824282;29;20418;-36
2022/12/04 00:20:00;;;;;;;14.52;8.30;;;15.90;1.00;;;;;;4824290;29;20069;-33
2022/12/04 00:22:26;;;;;;;16.52;7.97;;;15.90;1.00;;;;;;4824017;29;20054;-34
2022/12/04 00:24:53;;;;;;;14.68;8.50;;;15.90;1.00;;;;;;4824070;29;20055;-35
2022/12/04 00:27:20;;;;;;;13.10;8.90;;;15.80;1.00;;;;;;4824120;29;20483;-32
2022/12/04 00:29:47;;;;;;;15.07;8.90;;;15.80;1.00;;;;;;4824139;29;20054;-36
2022/12/04 00:32:13;;;;;;;15.23;8.32;;;15.70;1.00;;;;;;4824018;29;20054;-34
2022/12/04 00:34:40;;;;;;;12.73;8.20;;;15.70;1.00;;;;;;4823912;29;20042;-34
2022/12/04 00:37:06;;;;;;;17.52;8.32;;;15.70;1.00;;;;;;4824012;29;20046;-36
2022/12/04 00:39:33;;;;;;;12.85;7.90;;;15.70;1.00;;;;;;4824118;29;20054;-36
2022/12/04 00:42:00;;;;;;;14.63;9.50;;;15.60;1.00;;;;;;4823548;29;20461;-33
2022/12/04 00:44:27;;;;;;;15.02;8.90;;;15.60;1.00;;;;;;4823965;29;20046;-32
2022/12/04 00:46:53;;;;;;;15.18;8.45;;;15.60;1.00;;;;;;4823829;29;20453;-37
2022/12/04 00:49:20;;;;;;;15.98;8.15;;;15.50;1.00;;;;;;4823689;29;20487;-32
2022/12/04 00:51:47;;;;;;;13.20;7.78;;;15.50;1.00;;;;;;4824014;29;20095;-35
2022/12/04 00:54:13;;;;;;;13.73;8.65;;;15.50;1.00;;;;;;4823594;29;20077;-32
2022/12/04 00:56:40;;;;;;;16.65;9.52;;;15.40;1.00;;;;;;4823619;29;20125;-32
2022/12/04 00:59:07;;;;;;;13.95;7.80;;;15.40;1.00;;;;;;4823640;29;20047;-34
2022/12/04 01:01:34;;;;;;;14.13;9.23;;;15.40;1.00;;;;;;4823806;29;20473;-37
2022/12/04 01:04:01;;;;;;;16.60;9.60;;;15.40;1.00;;;;;;4823221;29;20095;-34
2022/12/04 01:06:31;;;;;;;14.98;8.73;;;15.30;1.00;;;;;;4823443;29;20132;-34
2022/12/04 01:08:59;;;;;;;15.77;9.43;;;15.30;1.00;;;;;;4823439;29;20522;-34
2022/12/04 01:11:28;;;;;;;16.23;9.13;;;15.30;1.00;;;;;;4822700;29;20633;-35
2022/12/04 01:13:56;;;;;;;15.77;8.55;;;15.20;1.00;;;;;;4823285;29;20046;-34
2022/12/04 01:16:28;;;;;;;13.40;8.75;;;15.20;1.00;;;;;;4823587;29;20047;-36
2022/12/04 01:18:56;;;;;;;16.00;9.60;;;15.20;1.00;;;;;;4823377;29;20050;-34
2022/12/04 01:21:22;;;;;;;13.82;8.40;;;15.20;1.00;;;;;;4823464;29;20078;-33
2022/12/04 01:23:49;;;;;;;14.82;7.95;;;15.10;1.00;;;;;;4822921;29;20084;-36
2022/12/04 01:26:16;;;;;;;19.33;9.80;;;15.10;1.00;;;;;;4823389;29;20050;-38
2022/12/04 01:28:43;;;;;;;16.17;9.57;;;15.10;1.00;;;;;;4823049;29;20133;-34
2022/12/04 01:31:13;;;;;;;17.15;9.05;;;15.00;1.00;;;;;;4823232;29;20103;-37
2022/12/04 01:33:40;;;;;;;17.33;10.05;;;15.00;1.00;;;;;;4822916;29;20073;-38
2022/12/04 01:36:16;;;;;;;15.70;9.57;;;15.00;1.00;;;;;;4823249;29;20046;-38
2022/12/04 01:38:43;;;;;;;15.80;9.15;;;15.00;1.00;;;;;;4823206;29;20137;-35
2022/12/04 01:41:11;;;;;;;13.27;8.05;;;15.00;1.00;;;;;;4823111;29;20058;-35
2022/12/04 01:43:39;;;;;;;20.15;9.77;;;14.90;1.00;;;;;;4822943;29;20050;-35
2022/12/04 01:46:07;;;;;;;17.45;8.95;;;14.90;1.00;;;;;;4823199;29;20475;-33
2022/12/04 01:48:43;;;;;;;15.80;9.30;;;14.90;1.00;;;;;;4822959;29;20050;-36
2022/12/04 01:51:18;;;;;;;17.10;9.73;;;14.90;1.00;;;;;;4823097;29;20583;-33
2022/12/04 01:53:53;;;;;;;13.80;8.10;;;14.90;1.00;;;;;;4822701;29;20039;-32
2022/12/04 01:56:24;;;;;;;15.80;8.98;;;14.90;1.00;;;;;;4823073;29;20121;-36
2022/12/04 01:58:55;;;;;;;14.77;9.05;;;15.00;1.00;;;;;;4821714;29;20418;-35
2022/12/04 02:01:22;;;;;;;16.27;8.65;;;15.00;1.00;;;;;;4822802;29;20134;-33
2022/12/04 02:03:49;;;;;;;15.15;9.40;;;15.10;1.00;;;;;;4822335;29;20092;-37
2022/12/04 02:06:15;;;;;;;14.30;8.95;;;15.20;1.00;;;;;;4822897;29;20073;-35
2022/12/04 02:08:42;;;;;;;15.93;8.38;;;15.30;1.00;;;;;;4822728;29;20046;-35
2022/12/04 02:11:28;;;;;;;14.05;8.43;;;15.40;1.00;;;;;;4822853;29;20586;-38
2022/12/04 02:14:15;;;;;;;14.18;8.10;;;15.40;1.00;;;;;;4822492;29;20072;-34
2022/12/04 02:17:06;;;;;;;13.65;7.40;;;15.50;1.00;;;;;;4822712;29;20084;-36
2022/12/04 02:19:58;;;;;;;13.95;8.13;;;15.60;1.00;;;;;;4822722;29;20047;-36
2022/12/04 02:23:02;;;;;;;15.73;8.85;;;15.60;1.00;;;;;;4824956;29;20057;-34
2022/12/04 02:25:41;;;;;;;16.23;8.43;;;15.70;1.00;;;;;;4826058;29;20061;-33
2022/12/04 02:28:13;;;;;;;14.88;8.18;;;15.70;1.00;;;;;;4825886;29;20046;-38
2022/12/04 02:30:42;;;;;;;15.25;8.52;;;15.80;1.00;;;;;;4825961;29;20487;-40
2022/12/04 02:33:21;;;;;;;13.75;7.78;;;15.80;1.00;;;;;;4825699;29;20050;-37
2022/12/04 02:35:58;;;;;;;12.90;7.75;;;15.80;1.00;;;;;;4825901;29;20563;-35
2022/12/04 02:38:37;;;;;;;13.38;7.85;;;15.80;1.00;;;;;;4825878;29;20102;-35
2022/12/04 02:41:06;;;;;;;14.82;8.43;;;15.80;1.00;;;;;;4825934;29;20054;-37
2022/12/04 02:43:41;;;;;;;13.48;7.85;;;15.80;1.00;;;;;;4825417;29;20054;-38
2022/12/04 02:46:19;;;;;;;15.05;7.68;;;15.80;1.00;;;;;;4825777;29;20054;-33
2022/12/04 02:48:50;;;;;;;14.23;7.45;;;15.80;1.00;;;;;;4825639;29;20053;-38
2022/12/04 02:51:20;;;;;;;16.65;9.25;;;15.80;1.00;;;;;;4825632;29;20453;-36
2022/12/04 02:53:52;;;;;;;13.23;8.02;;;15.80;1.00;;;;;;4825262;29;20050;-38
2022/12/04 02:56:25;;;;;;;18.33;8.55;;;15.80;1.00;;;;;;4825665;29;20057;-35
2022/12/04 02:58:56;;;;;;;18.13;8.75;;;15.70;1.00;;;;;;4825614;29;20076;-37
2022/12/04 03:01:29;;;;;;;18.20;9.02;;;15.70;1.00;;;;;;4839600;29;20116;-38
2022/12/04 03:03:59;;;;;;;15.20;8.60;;;15.70;1.00;;;;;;4825117;29;20058;-36
2022/12/04 03:06:29;;;;;;;16.92;9.85;;;15.70;1.00;;;;;;4825467;29;20460;-33
2022/12/04 03:09:23;;;;;;;15.82;8.65;;;15.70;1.00;;;;;;4825405;29;20129;-34
2022/12/04 03:11:56;;;;;;;14.35;8.60;;;15.70;1.00;;;;;;4820800;29;20055;-37
2022/12/04 03:14:28;;;;;;;16.40;8.55;;;15.60;1.00;;;;;;4807059;29;20053;-34
2022/12/04 03:17:01;;;;;;;18.48;9.70;;;15.60;1.00;;;;;;4807285;29;20122;-37
2022/12/04 03:19:38;;;;;;;19.13;9.30;;;15.60;1.00;;;;;;4807301;29;20053;-36
2022/12/04 03:22:09;;;;;;;14.95;7.95;;;15.60;1.00;;;;;;4806831;29;20104;-40
2022/12/04 03:24:41;;;;;;;16.77;8.70;;;15.60;1.00;;;;;;4807280;29;20100;-37
2022/12/04 03:27:23;;;;;;;16.70;9.30;;;15.50;1.00;;;;;;4807275;29;20059;-33
2022/12/04 03:29:55;;;;;;;15.60;9.45;;;15.50;1.00;;;;;;4817340;24;20047;-39
2022/12/04 03:32:37;;;;;;;12.70;8.05;;;15.50;1.00;;;;;;4799558;29;20042;-39
2022/12/04 03:35:11;;;;;;;13.52;8.07;;;15.40;1.00;;;;;;4805584;29;20146;-41
2022/12/04 03:37:50;;;;;;;17.67;9.60;;;15.40;1.00;;;;;;4806976;29;20112;-41
2022/12/04 03:40:29;;;;;;;15.38;8.50;;;15.40;1.00;;;;;;4806865;29;20051;-41
2022/12/04 03:43:12;;;;;;;16.70;8.82;;;15.40;1.00;;;;;;4806507;29;20445;-39
2022/12/04 03:45:46;;;;;;;16.10;9.07;;;15.30;1.00;;;;;;4818010;29;20487;-40
2022/12/04 03:48:20;;;;;;;16.95;8.93;;;15.30;1.00;;;;;;4822690;29;20499;-40
2022/12/04 03:50:56;;;;;;;17.40;8.75;;;15.30;1.00;;;;;;4817553;29;20480;-41
2022/12/04 03:53:38;;;;;;;18.33;9.10;;;15.30;1.00;;;;;;4824383;29;20081;-40
2022/12/04 03:56:13;;;;;;;13.65;8.18;;;15.20;1.00;;;;;;4816494;29;20039;-40
2022/12/04 03:58:44;;;;;;;14.57;8.82;;;15.20;1.00;;;;;;4824697;29;20103;-40
2022/12/04 04:01:13;;;;;;;17.83;9.50;;;15.20;1.00;;;;;;4824707;29;20451;-40
2022/12/04 04:03:46;;;;;;;15.35;8.25;;;15.10;1.00;;;;;;4820651;29;20057;-40
2022/12/04 04:06:22;;;;;;;15.15;8.52;;;15.10;1.00;;;;;;4816885;29;20074;-40
2022/12/04 04:08:54;;;;;;;17.85;10.60;;;15.10;1.00;;;;;;4824572;29;20050;-40
2022/12/04 04:12:03;;;;;;;13.35;8.63;;;15.10;1.00;;;;;;4824584;29;20042;-41
2022/12/04 04:25:56;;;;;;;14.50;8.00;;;15.20;1.00;;;;;;4824190;29;20115;-40
2022/12/04 04:28:37;;;;;;;17.55;8.40;;;15.30;1.00;;;;;;4824113;29;20139;-41
2022/12/04 04:31:25;;;;;;;13.88;8.25;;;15.40;1.00;;;;;;4824220;29;20054;-41
2022/12/04 04:33:58;;;;;;;15.65;7.57;;;15.50;1.00;;;;;;4824026;29;20091;-40
2022/12/04 04:36:44;;;;;;;11.27;7.40;;;15.60;1.00;;;;;;4824118;29;20042;-40
2022/12/04 04:39:22;;;;;;;14.75;8.43;;;15.60;1.00;;;;;;4823945;29;20116;-41
2022/12/04 04:42:13;;;;;;;14.02;8.35;;;15.70;1.00;;;;;;4824034;29;20053;-41
2022/12/04 04:45:12;;;;;;;14.45;8.75;;;15.70;1.00;;;;;;4823853;29;20190;-41
2022/12/04 04:47:49;;;;;;;14.30;8.38;;;15.80;1.00;;;;;;4804675;29;20095;-41
2022/12/04 04:50:16;;;;;;;15.95;8.00;;;15.80;1.00;;;;;;4823794;29;20456;-41
2022/12/04 04:52:48;;;;;;;18.15;8.18;;;15.80;1.00;;;;;;4823537;29;20038;-41
2022/12/04 04:55:16;;;;;;;16.27;8.00;;;15.80;1.00;;;;;;4807569;29;20042;-41
2022/12/04 04:57:43;;;;;;;13.60;7.53;;;15.80;1.00;;;;;;4823817;29;20043;-40
2022/12/04 05:00:18;;;;;;;15.55;9.10;;;15.80;1.00;;;;;;4823567;29;20054;-41
2022/12/04 05:02:47;;;;;;;14.48;8.13;;;15.80;1.00;;;;;;4823671;29;20042;-41
2022/12/04 05:05:14;;;;;;;13.43;7.60;;;15.90;1.00;;;;;;4823752;29;20535;-41
2022/12/04 05:07:40;;;;;;;14.88;8.38;;;15.80;1.00;;;;;;4823663;29;20133;-41
2022/12/04 05:10:09;;;;;;;17.63;9.77;;;15.80;1.00;;;;;;4823409;29;20042;-41
2022/12/04 05:12:36;;;;;;;14.25;8.10;;;15.80;1.00;;;;;;4823344;29;20050;-41
2022/12/04 05:15:03;;;;;;;13.60;8.30;;;15.80;1.00;;;;;;4823596;29;20081;-41
2022/12/04 05:17:30;;;;;;;16.13;8.73;;;15.80;1.00;;;;;;4823552;29;20046;-40
2022/12/04 05:19:57;;;;;;;15.38;8.77;;;15.80;1.00;;;;;;4823357;29;20043;-40
2022/12/04 05:22:31;;;;;;;15.63;9.00;;;15.80;1.00;;;;;;4823341;29;20401;-41
2022/12/04 05:24:58;;;;;;;15.95;8.98;;;15.80;1.00;;;;;;4823204;29;20110;-40
2022/12/04 05:27:26;;;;;;;14.30;8.43;;;15.70;1.00;;;;;;4823333;29;20057;-41
2022/12/04 05:29:54;;;;;;;17.30;8.82;;;15.70;1.00;;;;;;4823177;29;20129;-41
2022/12/04 05:32:24;;;;;;;17.08;9.57;;;15.60;1.00;;;;;;4823280;29;20499;-40
2022/12/04 05:34:53;;;;;;;15.65;8.88;;;15.70;1.00;;;;;;4823235;29;20046;-40
2022/12/04 05:37:20;;;;;;;18.65;9.43;;;15.60;1.00;;;;;;4806787;29;20053;-40
2022/12/04 05:39:47;;;;;;;19.05;9.23;;;15.60;1.00;;;;;;4823230;29;20145;-41
2022/12/04 05:42:14;;;;;;;17.98;10.45;;;15.60;1.00;;;;;;4823030;29;20074;-41
2022/12/04 05:44:41;;;;;;;14.98;9.30;;;15.60;1.00;;;;;;4823067;29;20051;-41
2022/12/04 05:47:08;;;;;;;14.27;8.82;;;15.50;1.00;;;;;;4823189;29;20132;-41
2022/12/04 05:49:35;;;;;;;18.90;10.20;;;15.50;1.00;;;;;;4822993;29;20042;-40
2022/12/04 05:52:03;;;;;;;19.45;9.90;;;15.50;1.00;;;;;;4822843;29;20179;-40
2022/12/04 05:54:30;;;;;;;15.25;9.25;;;15.40;1.00;;;;;;4822818;29;20051;-41
2022/12/04 05:56:57;;;;;;;17.13;9.93;;;15.40;1.00;;;;;;4826489;29;20047;-41
2022/12/04 05:59:24;;;;;;;15.43;9.15;;;15.40;1.00;;;;;;4829059;29;20545;-41
2022/12/04 06:01:51;;;;;;;18.73;10.05;;;15.40;1.00;;;;;;4828918;29;20076;-40
2022/12/04 06:04:17;;;;;;;17.60;8.85;;;15.30;1.00;;;;;;4828766;29;20047;-40
2022/12/04 06:06:44;;;;;;;17.08;9.57;;;15.30;1.00;;;;;;4828638;29;20476;-41
2022/12/04 06:09:11;;;;;;;18.73;10.77;;;15.30;1.00;;;;;;4828930;29;20388;-41
2022/12/04 06:11:40;;;;;;;21.67;10.43;;;15.20;1.00;;;;;;4828791;29;20051;-40
2022/12/04 06:14:10;;;;;;;15.10;9.15;;;15.20;1.00;;;;;;4828665;29;20514;-40
2022/12/04 06:16:39;;;;;;;19.75;9.73;;;15.20;1.00;;;;;;4812537;29;20081;-41
2022/12/04 06:19:12;;;;;;;18.80;10.10;;;15.20;1.00;;;;;;4828559;29;20054;-41
2022/12/04 06:21:41;;;;;;;16.88;9.88;;;15.10;1.00;;;;;;4828807;29;20058;-40
2022/12/04 06:24:14;;;;;;;17.30;10.15;;;15.10;1.00;;;;;;4828492;29;20100;-41
2022/12/04 06:26:42;;;;;;;18.23;9.30;;;15.10;1.00;;;;;;4812334;29;20423;-40
2022/12/04 06:29:28;;;;;;;16.52;9.82;;;15.10;1.00;;;;;;4828442;29;20046;-40
2022/12/04 06:31:55;;;;;;;15.98;9.40;;;15.00;1.00;;;;;;4828619;29;20070;-40
2022/12/04 06:34:22;;;;;;;15.05;9.88;;;15.10;1.00;;;;;;4828450;29;20046;-40
2022/12/04 06:36:48;;;;;;;16.48;9.43;;;15.10;1.00;;;;;;4812188;29;20484;-40
2022/12/04 06:39:15;;;;;;;16.67;9.35;;;15.20;1.00;;;;;;4828613;29;20055;-40
2022/12/04 06:41:46;;;;;;;18.77;9.68;;;15.30;1.00;;;;;;4812675;29;20062;-40
2022/12/04 06:44:14;;;;;;;17.15;10.32;;;15.40;1.00;;;;;;4812248;29;20103;-41
2022/12/04 06:46:41;;;;;;;16.75;9.63;;;15.40;1.00;;;;;;4828575;29;20050;-40
2022/12/04 06:49:13;;;;;;;15.57;9.35;;;15.50;1.00;;;;;;4828505;29;20495;-40
2022/12/04 06:51:40;;;;;;;17.75;10.40;;;15.60;1.00;;;;;;4828513;29;20049;-40
2022/12/04 06:54:08;;;;;;;16.08;9.30;;;15.60;1.00;;;;;;4828254;29;20467;-41
2022/12/04 06:56:34;;;;;;;15.20;9.65;;;15.70;1.00;;;;;;4828312;29;20051;-40
2022/12/04 06:59:03;;;;;;;18.25;9.82;;;15.70;1.00;;;;;;4828519;29;20137;-41
2022/12/04 07:01:32;;;;;;;16.08;9.95;;;15.80;1.00;;;;;;4828421;29;20091;-41
2022/12/04 07:04:02;;;;;;;17.27;9.15;;;15.80;1.00;;;;;;4828146;29;20054;-41
2022/12/04 07:06:34;;;;;;;15.45;8.40;;;15.80;1.00;;;;;;4828373;29;20058;-41
2022/12/04 07:09:06;;;;;;;17.63;10.30;;;15.80;1.00;;;;;;4824500;29;20042;-41
2022/12/04 07:11:33;;;;;;;14.73;9.63;;;15.80;1.00;;;;;;4825382;29;20042;-41
2022/12/04 07:14:03;;;;;;;19.02;9.90;;;15.80;1.00;;;;;;4825113;29;20082;-40
2022/12/04 07:16:44;;;;;;;15.52;9.15;;;15.90;1.00;;;;;;4825262;29;20049;-40
2022/12/04 07:19:17;;;;;;;18.33;10.55;;;15.90;1.00;;;;;;4825298;29;20054;-41
2022/12/04 07:21:52;;;;;;;18.15;9.88;;;15.80;1.00;;;;;;4825163;29;20058;-41
2022/12/04 07:24:20;;;;;;;19.05;10.88;;;15.80;1.00;;;;;;4824889;29;20064;-40
2022/12/04 07:26:58;;;;;;;16.52;10.48;;;15.80;1.00;;;;;;4825102;29;20046;-40
2022/12/04 07:29:30;;;;;;;19.05;10.10;;;15.80;1.00;;;;;;4825125;29;20060;-40
2022/12/04 07:32:05;;;;;;;18.73;10.80;;;15.80;1.00;;;;;;4824589;29;20059;-41
2022/12/04 07:34:46;;;;;;;17.55;9.82;;;15.70;1.00;;;;;;4824895;29;20130;-41
2022/12/04 07:37:20;;;;;;;21.95;11.77;;;15.70;1.00;;;;;;4825114;29;20125;-40
2022/12/04 07:39:51;;;;;;;20.40;11.68;;;15.70;1.00;;;;;;4825019;29;20410;-41
2022/12/04 07:42:29;;;;;;;17.42;11.00;;;15.60;1.00;;;;;;4824581;29;20133;-40
2022/12/04 07:45:10;;;;;;;16.77;9.73;;;15.60;1.00;;;;;;4810081;29;20579;-40
2022/12/04 07:47:41;;;;;;;17.23;10.73;;;15.60;1.00;;;;;;4824907;29;20062;-40
2022/12/04 07:50:22;;;;;;;19.08;11.30;;;15.60;1.00;;;;;;4824555;29;20043;-41
2022/12/04 07:53:12;;;;;;;18.00;11.50;;;15.60;1.00;;;;;;4820208;29;20566;-41
2022/12/04 07:55:54;;;;;;;16.58;10.35;;;15.50;1.00;;;;;;4823496;29;20061;-40
2022/12/04 07:58:25;;;;;;;18.65;11.20;;;15.50;1.00;;;;;;4824270;29;20110;-40
2022/12/04 08:01:05;;;;;;;21.02;11.57;;;15.50;1.00;;;;;;4824498;29;20077;-40
2022/12/04 08:03:43;;;;;;;20.17;10.85;;;15.40;1.00;;;;;;4824127;29;20046;-41
2022/12/04 08:06:17;;;;;;;18.08;12.00;;;15.40;1.00;;;;;;4824423;29;20046;-40
2022/12/04 08:08:44;;;;;;;18.08;10.95;;;15.40;1.00;;;;;;4823886;29;20042;-41
2022/12/04 08:11:14;;;;;;;21.60;10.75;;;15.30;1.00;;;;;;4823803;29;20050;-40
2022/12/04 08:13:40;;;;;;;21.20;10.68;;;15.40;1.00;;;;;;4823328;29;20052;-40
2022/12/04 08:16:09;;;;;;;14.43;9.05;;;15.30;1.00;;;;;;4820296;29;20368;-40
2022/12/04 08:18:37;;;;;;;17.13;10.18;;;15.30;1.00;;;;;;4819097;29;20382;-40
2022/12/04 08:21:09;;;;;;;16.75;9.95;;;15.40;1.00;;;;;;4818547;29;20050;-40
2022/12/04 08:23:36;;;;;;;15.82;10.00;;;15.40;1.00;;;;;;4821470;29;20057;-41
2022/12/04 08:26:05;;;;;;;20.17;10.43;;;15.50;1.00;;;;;;4818650;29;20070;-41
2022/12/04 08:28:32;;;;;;;15.57;9.50;;;15.60;1.00;;;;;;4810449;29;20384;-40
2022/12/04 08:31:19;;;;;;;20.65;10.88;;;15.80;1.00;;;;;;4798974;29;20593;-40
2022/12/04 08:33:48;;;;;;;16.60;9.77;;;16.00;1.00;;;;;;4783017;29;20084;-40
2022/12/04 08:36:18;;;;;;;16.65;9.65;;;16.20;1.00;;;;;;4803993;29;20042;-41
2022/12/04 08:38:45;;;;;;;14.25;8.88;;;16.40;1.00;;;;;;4804405;29;20393;-41
2022/12/04 08:41:15;;;;;;;14.80;9.23;;;16.60;1.00;;;;;;4804811;29;20058;-41
2022/12/04 08:43:42;;;;;;;19.80;9.27;;;16.80;1.00;;;;;;4804923;29;20112;-41
2022/12/04 08:46:11;;;;;;;16.23;9.02;;;17.00;1.00;;;;;;4804850;29;20058;-41
2022/12/04 08:48:39;;;;;;;19.15;10.00;;;17.20;1.00;;;;;;4804536;29;20154;-41
2022/12/04 08:51:07;;;;;;;13.48;8.93;;;17.40;1.00;;;;;;4804972;29;20126;-40
2022/12/04 08:53:37;;;;;;;16.58;8.65;;;17.50;1.00;;;;;;4804575;29;20047;-41
2022/12/04 08:56:04;;;;;;;11.77;8.50;;;17.60;1.00;;;;;;4802898;29;20039;-41
2022/12/04 08:58:31;;;;;;;16.05;9.77;;;17.70;1.00;;;;;;4804426;29;20191;-39
2022/12/04 09:01:09;;;;;;;14.70;8.15;;;17.80;1.00;;;;;;4804319;29;20047;-41
2022/12/04 09:03:37;;;;;;;13.57;7.90;;;17.90;1.00;;;;;;4804334;29;20099;-40
2022/12/04 09:06:04;;;;;;;16.88;8.85;;;17.90;1.00;;;;;;4788580;29;20057;-41
2022/12/04 09:08:32;;;;;;;14.25;8.75;;;18.00;1.00;;;;;;4804137;29;20074;-41
2022/12/04 09:11:03;;;;;;;17.92;8.80;;;18.00;1.00;;;;;;4804002;29;20043;-41
2022/12/04 09:13:31;;;;;;;12.25;8.55;;;18.00;1.00;;;;;;4803931;29;20047;-41
2022/12/04 09:15:58;;;;;;;14.95;9.02;;;18.00;1.00;;;;;;4804023;29;20035;-41
2022/12/04 09:18:25;;;;;;;15.13;8.00;;;18.10;1.00;;;;;;4804006;29;20108;-41
2022/12/04 09:20:57;;;;;;;16.88;7.65;;;18.10;1.00;;;;;;4803934;29;20054;-42
2022/12/04 09:23:24;;;;;;;16.40;7.82;;;18.20;1.00;;;;;;4803762;29;20046;-41
2022/12/04 09:25:51;;;;;;;14.40;8.52;;;18.10;1.00;;;;;;4812755;29;20047;-41
2022/12/04 09:28:19;;;;;;;14.95;9.25;;;18.20;1.00;;;;;;4813744;29;20593;-39
2022/12/04 09:30:55;;;;;;;14.70;8.48;;;18.20;1.00;;;;;;4838164;24;20042;-39
2022/12/04 09:33:22;;;;;;;11.43;7.60;;;18.20;1.00;;;;;;4840795;29;20042;-38
2022/12/04 09:35:49;;;;;;;17.95;9.00;;;18.20;1.00;;;;;;4841397;29;20125;-39
2022/12/04 09:38:15;;;;;;;15.23;8.27;;;18.20;1.00;;;;;;4841339;29;20074;-38
2022/12/04 09:41:08;;;;;;;13.30;7.72;;;18.20;1.00;;;;;;4841385;29;20138;-38
2022/12/04 09:43:46;;;;;;;17.95;8.82;;;18.20;1.00;;;;;;4830807;29;20065;-39
2022/12/04 09:46:32;;;;;;;15.55;8.05;;;18.20;1.00;;;;;;4841350;29;20054;-39
2022/12/04 09:49:03;;;;;;;14.60;8.50;;;18.20;1.00;;;;;;4841201;29;20049;-38
2022/12/04 09:51:34;;;;;;;18.77;9.73;;;18.20;1.00;;;;;;4841064;29;20046;-39
2022/12/04 09:54:22;;;;;;;13.45;8.63;;;18.20;1.00;;;;;;4840907;29;20073;-39
2022/12/04 09:56:58;;;;;;;13.98;8.35;;;18.20;1.00;;;;;;4841143;29;20042;-39
2022/12/04 09:59:28;;;;;;;11.52;7.85;;;18.20;1.00;;;;;;4841287;29;20057;-39
2022/12/04 10:02:03;;;;;;;16.73;8.77;;;18.30;1.00;;;;;;4840928;29;20061;-39
2022/12/04 10:04:30;;;;;;;15.73;9.10;;;18.30;1.00;;;;;;4840807;29;20499;-40
2022/12/04 10:07:05;;;;;;;15.85;8.60;;;18.30;1.00;;;;;;4824859;29;20046;-39
2022/12/04 10:10:06;;;;;;;13.63;7.75;;;18.30;1.00;;;;;;4840976;29;20124;-39
2022/12/04 10:12:53;;;;;;;11.82;7.53;;;18.30;1.00;;;;;;4821136;29;20126;-39
2022/12/04 10:15:47;;;;;;;15.27;7.72;;;18.30;1.00;;;;;;4824064;29;20038;-39
2022/12/04 10:18:32;;;;;;;14.43;8.25;;;18.30;1.00;;;;;;4829025;29;20505;-39
2022/12/04 10:21:05;;;;;;;13.25;7.82;;;18.30;1.00;;;;;;4818477;29;20735;-39
2022/12/04 10:23:42;;;;;;;12.57;6.93;;;18.30;1.00;;;;;;4823887;29;20042;-40
2022/12/04 10:26:16;;;;;;;13.00;7.88;;;18.30;1.00;;;;;;4828803;29;20053;-39
2022/12/04 10:28:49;;;;;;;14.38;6.93;;;18.30;1.00;;;;;;4833414;29;20526;-40
2022/12/04 10:31:22;;;;;;;13.45;8.75;;;18.30;1.00;;;;;;4830556;29;20042;-39
2022/12/04 10:33:57;;;;;;;12.73;7.75;;;18.30;1.00;;;;;;4822528;29;20053;-39
2022/12/04 10:36:29;;;;;;;16.10;9.07;;;18.30;1.00;;;;;;4822603;29;20050;-40
2022/12/04 10:39:16;;;;;;;12.68;7.90;;;18.30;1.00;;;;;;4822624;29;20627;-39
2022/12/04 10:41:59;;;;;;;13.88;8.13;;;18.30;1.00;;;;;;4822577;29;20065;-40
2022/12/04 10:44:26;;;;;;;12.98;7.97;;;18.30;1.00;;;;;;4825636;29;20099;-40
2022/12/04 10:46:57;;;;;;;11.63;8.00;;;18.30;1.00;;;;;;4825820;29;20052;-40
2022/12/04 10:49:30;;;;;;;14.68;7.53;;;18.40;1.00;;;;;;4825695;29;20571;-40
2022/12/04 10:51:57;;;;;;;14.30;7.90;;;18.40;1.00;;;;;;4825612;29;20042;-40
2022/12/04 10:54:34;;;;;;;14.68;7.60;;;18.40;1.00;;;;;;4825379;29;20468;-39
2022/12/04 10:57:07;;;;;;;11.82;7.55;;;18.30;1.00;;;;;;4825654;29;20122;-40
2022/12/04 10:59:37;;;;;;;12.98;8.10;;;18.30;1.00;;;;;;4825646;29;20506;-39
2022/12/04 11:02:21;;;;;;;11.55;7.03;;;18.30;1.00;;;;;;4825561;29;20065;-39
2022/12/04 11:05:00;;;;;;;13.20;6.85;;;18.30;1.00;;;;;;4825312;29;20050;-39
2022/12/04 11:07:30;;;;;;;18.33;6.57;;;18.30;1.00;;;;;;4825449;29;20047;-38
2022/12/04 11:10:02;;;;;;;12.60;8.00;;;18.40;1.00;;;;;;4808974;29;20074;-39
2022/12/04 11:12:29;;;;;;;12.05;6.65;;;18.40;1.00;;;;;;4825266;29;20098;-39
2022/12/04 11:15:12;;;;;;;13.23;7.97;;;18.40;1.00;;;;;;4825366;29;20042;-40
2022/12/04 11:17:39;;;;;;;15.32;7.07;;;18.40;1.00;;;;;;4825314;29;20042;-40
2022/12/04 11:20:14;;;;;;;25.80;7.18;;;18.40;1.00;;;;;;4825048;29;20078;-40
2022/12/04 11:22:53;;;;;;;13.38;8.57;;;18.40;1.00;;;;;;4832441;29;20530;-40
2022/12/04 11:25:21;;;;;;;13.63;8.23;;;18.30;1.00;;;;;;4836178;29;20057;-41
2022/12/04 11:27:54;;;;;;;13.70;8.38;;;18.20;1.00;;;;;;4833052;29;20050;-40
2022/12/04 11:30:30;;;;;;;14.80;8.77;;;18.20;1.00;;;;;;4835149;29;20068;-40
2022/12/04 11:32:57;;;;;;;13.55;9.02;;;18.10;1.00;;;;;;4830793;29;20047;-40
2022/12/04 11:35:27;;;;;;;14.80;9.32;;;18.00;1.00;;;;;;4834340;29;20502;-37
2022/12/04 11:38:01;;;;;;;22.25;10.00;;;18.00;1.00;;;;;;4840064;29;20623;-40
2022/12/04 11:40:28;;;;;;;17.23;10.18;;;17.90;1.00;;;;;;4843233;29;20050;-40
2022/12/04 11:43:10;;;;;;;20.33;11.95;;;17.70;1.00;;;;;;4843020;29;20054;-40
2022/12/04 11:45:37;;;;;;;18.50;10.65;;;17.60;1.00;;;;;;4843174;29;20521;-38
2022/12/04 11:48:14;;;;;;;13.85;9.25;;;17.50;1.00;;;;;;4843200;29;20106;-39
2022/12/04 11:50:56;;;;;;;16.98;9.27;;;17.50;1.00;;;;;;4842960;29;20042;-39
2022/12/04 11:53:46;;;;;;;14.15;8.80;;;17.40;1.00;;;;;;4839166;29;20057;-40
2022/12/04 11:56:19;;;;;;;13.93;7.95;;;17.40;1.00;;;;;;4836579;29;20117;-40
2022/12/04 11:59:14;;;;;;;15.82;9.15;;;17.40;1.00;;;;;;4834760;29;20050;-39
2022/12/04 12:01:48;;;;;;;14.65;8.70;;;17.30;1.00;;;;;;4830455;29;20064;-39
2022/12/04 12:04:52;;;;;;;12.10;7.38;;;17.30;1.00;;;;;;4824294;29;20054;-40
2022/12/04 12:07:22;;;;;;;13.48;8.30;;;17.20;1.00;;;;;;4824564;29;20051;-39
2022/12/04 12:10:29;;;;;;;14.63;8.77;;;17.10;1.00;;;;;;4824522;29;20056;-40
2022/12/04 12:13:16;;;;;;;15.13;8.13;;;17.10;1.00;;;;;;4822595;29;20547;-40
2022/12/04 12:16:01;;;;;;;15.68;8.65;;;17.00;1.00;;;;;;4822804;29;20167;-39
2022/12/04 12:19:07;;;;;;;16.60;9.93;;;17.00;1.00;;;;;;4824054;29;20050;-40
2022/12/04 12:21:58;;;;;;;18.83;9.50;;;16.90;1.00;;;;;;4824022;29;20057;-40
2022/12/04 12:24:47;;;;;;;16.50;9.57;;;16.80;1.00;;;;;;4824029;29;20469;-40
2022/12/04 12:27:29;;;;;;;14.40;8.80;;;16.80;1.00;;;;;;4824599;29;20049;-40
2022/12/04 12:30:18;;;;;;;17.73;8.35;;;16.70;1.00;;;;;;4827824;29;20045;-39
2022/12/04 12:33:10;;;;;;;13.20;7.63;;;16.70;1.00;;;;;;4839374;29;20050;-40
2022/12/04 12:36:05;;;;;;;12.68;7.80;;;16.70;1.00;;;;;;4832705;29;20042;-39
2022/12/04 12:38:45;;;;;;;18.67;9.52;;;16.60;1.00;;;;;;4828064;29;20141;-40
2022/12/04 12:41:19;;;;;;;12.85;7.95;;;16.60;1.00;;;;;;4834385;29;20072;-40
2022/12/04 12:43:59;;;;;;;12.80;7.53;;;16.60;1.00;;;;;;4829909;29;20034;-38
2022/12/04 12:46:33;;;;;;;13.38;7.45;;;16.60;1.00;;;;;;4817681;29;20126;-38
2022/12/04 12:49:15;;;;;;;14.98;8.68;;;16.70;1.00;;;;;;4828017;29;20045;-39
2022/12/04 12:51:52;;;;;;;13.60;7.38;;;16.80;1.00;;;;;;4832019;29;20057;-40
2022/12/04 12:54:37;;;;;;;11.57;7.50;;;16.90;1.00;;;;;;4829319;29;20053;-39
2022/12/04 12:57:41;;;;;;;11.23;6.88;;;17.10;1.00;;;;;;4839847;29;20118;-39
2022/12/04 13:00:17;;;;;;;10.13;6.97;;;17.20;1.00;;;;;;4767377;30;20048;-39
2022/12/04 13:03:00;;;;;;;11.50;6.97;;;17.40;1.00;;;;;;4816332;29;20082;-40
2022/12/04 13:05:35;;;;;;;10.88;6.65;;;17.50;1.00;;;;;;4822870;29;20407;-41
2022/12/04 13:08:24;;;;;;;9.20;6.13;;;17.60;1.00;;;;;;4823528;29;20079;-40
2022/12/04 13:11:03;;;;;;;9.98;5.78;;;17.80;1.00;;;;;;4823581;29;20129;-40
2022/12/04 13:13:34;;;;;;;11.27;6.85;;;17.90;1.00;;;;;;4826312;29;20514;-40
2022/12/04 13:16:11;;;;;;;12.50;6.65;;;18.00;1.00;;;;;;4836789;29;20049;-40
2022/12/04 13:18:44;;;;;;;9.80;6.15;;;18.10;1.00;;;;;;4828488;29;20042;-39
2022/12/04 13:21:38;;;;;;;12.80;6.07;;;18.20;1.00;;;;;;4829571;29;20050;-39
2022/12/04 13:24:26;;;;;;;8.75;5.68;;;18.30;1.00;;;;;;4828579;29;20050;-39
2022/12/04 13:27:02;;;;;;;9.57;5.95;;;18.30;1.00;;;;;;4823018;29;20120;-38
2022/12/04 13:29:41;;;;;;;9.23;5.38;;;18.40;1.00;;;;;;4823045;29;20065;-38